createdAt,value
2018-09-15T00:00:34.856Z,973.26
2018-09-15T00:01:44.988Z,973.28
2018-09-15T00:02:54.841Z,973.3
2018-09-15T00:04:04.695Z,973.29
2018-09-15T00:05:14.548Z,973.32
2018-09-15T00:06:24.679Z,973.32
2018-09-15T00:07:34.549Z,973.33
2018-09-15T00:08:44.674Z,973.37
2018-09-15T00:09:54.530Z,973.4
2018-09-15T00:11:04.112Z,973.44
2018-09-15T00:12:13.699Z,973.42
2018-09-15T00:13:23.836Z,973.42
2018-09-15T00:14:33.967Z,973.49
2018-09-15T00:15:43.273Z,973.52
2018-09-15T00:16:53.184Z,973.57
2018-09-15T00:18:03.043Z,973.53
2018-09-15T00:19:13.174Z,973.63
2018-09-15T00:20:23.054Z,973.63
2018-09-15T00:21:33.196Z,973.63
2018-09-15T00:22:43.398Z,973.6
2018-09-15T00:23:53.622Z,973.63
2018-09-15T00:25:03.764Z,973.63
2018-09-15T00:26:13.632Z,973.65
2018-09-15T00:27:23.765Z,973.66
2018-09-15T00:28:33.948Z,973.73
2018-09-15T00:29:44.077Z,973.78
2018-09-15T00:30:54.209Z,973.78
2018-09-15T00:32:04.084Z,973.75
2018-09-15T00:33:13.670Z,973.84
2018-09-15T00:34:23.585Z,973.84
2018-09-15T00:35:33.719Z,973.82
2018-09-15T00:36:43.854Z,973.75
2018-09-15T00:37:53.438Z,973.77
2018-09-15T00:39:03.592Z,973.76
2018-09-15T00:40:13.759Z,973.78
2018-09-15T00:41:23.890Z,973.76
2018-09-15T00:42:34.018Z,973.76
2018-09-15T00:43:43.870Z,973.81
2018-09-15T00:44:53.997Z,973.77
2018-09-15T00:46:03.902Z,973.75
2018-09-15T00:47:14.030Z,973.82
2018-09-15T00:48:23.890Z,973.83
2018-09-15T00:49:33.744Z,973.85
2018-09-15T00:50:43.600Z,973.84
2018-09-15T00:51:53.721Z,973.81
2018-09-15T00:53:03.850Z,973.82
2018-09-15T00:54:13.703Z,973.86
2018-09-15T00:55:23.560Z,973.89
2018-09-15T00:56:33.688Z,973.9
2018-09-15T00:57:43.869Z,973.9
2018-09-15T00:58:54.044Z,973.92
2018-09-15T01:00:03.618Z,973.92
2018-09-15T01:01:13.476Z,973.96
2018-09-15T01:02:23.600Z,973.98
2018-09-15T01:03:33.503Z,973.94
2018-09-15T01:04:43.625Z,973.92
2018-09-15T01:05:53.472Z,973.87
2018-09-15T01:07:03.599Z,973.91
2018-09-15T01:08:13.730Z,973.9
2018-09-15T01:09:23.583Z,973.93
2018-09-15T01:10:33.173Z,973.97
2018-09-15T01:11:43.026Z,974
2018-09-15T01:12:52.875Z,973.94
2018-09-15T01:14:02.572Z,974.01
2018-09-15T01:15:13.246Z,974.04
2018-09-15T01:16:23.382Z,974.06
2018-09-15T01:17:33.235Z,974.1
2018-09-15T01:18:43.084Z,974.09
2018-09-15T01:19:53.221Z,974.12
2018-09-15T01:21:03.711Z,974.15
2018-09-15T01:22:13.838Z,974.13
2018-09-15T01:23:23.699Z,974.17
2018-09-15T01:24:33.279Z,974.14
2018-09-15T01:25:43.405Z,974.14
2018-09-15T01:26:53.642Z,974.2
2018-09-15T01:28:03.772Z,974.18
2018-09-15T01:29:13.625Z,974.19
2018-09-15T01:30:23.748Z,974.24
2018-09-15T01:31:33.603Z,974.24
2018-09-15T01:32:43.186Z,974.24
2018-09-15T01:33:53.318Z,974.28
2018-09-15T01:35:02.898Z,974.3
2018-09-15T01:36:12.478Z,974.28
2018-09-15T01:37:22.330Z,974.26
2018-09-15T01:38:32.458Z,974.23
2018-09-15T01:39:42.594Z,974.25
2018-09-15T01:40:52.179Z,974.25
2018-09-15T01:42:02.331Z,974.25
2018-09-15T01:43:12.184Z,974.27
2018-09-15T01:44:22.364Z,974.29
2018-09-15T01:45:32.488Z,974.27
2018-09-15T01:46:42.613Z,974.28
2018-09-15T01:47:52.737Z,974.24
2018-09-15T01:49:02.311Z,974.27
2018-09-15T01:50:12.490Z,974.21
2018-09-15T01:51:22.610Z,974.2
2018-09-15T01:52:32.458Z,974.23
2018-09-15T01:53:42.588Z,974.23
2018-09-15T01:54:52.436Z,974.22
2018-09-15T01:56:02.344Z,974.21
2018-09-15T01:57:12.194Z,974.25
2018-09-15T01:58:22.352Z,974.18
2018-09-15T01:59:32.212Z,974.23
2018-09-15T02:00:42.073Z,974.3
2018-09-15T02:01:51.985Z,974.28
2018-09-15T02:03:02.114Z,974.24
2018-09-15T02:04:11.736Z,974.24
2018-09-15T02:05:21.862Z,974.29
2018-09-15T02:06:31.990Z,974.25
2018-09-15T02:07:41.841Z,974.22
2018-09-15T02:08:51.692Z,974.21
2018-09-15T02:10:01.820Z,974.24
2018-09-15T02:11:11.666Z,974.3
2018-09-15T02:12:21.797Z,974.31
2018-09-15T02:13:31.652Z,974.24
2018-09-15T02:14:41.778Z,974.26
2018-09-15T02:15:50.808Z,974.26
2018-09-15T02:17:00.934Z,974.29
2018-09-15T02:18:10.790Z,974.36
2018-09-15T02:19:21.067Z,974.35
2018-09-15T02:20:31.206Z,974.33
2018-09-15T02:21:41.329Z,974.34
2018-09-15T02:22:51.481Z,974.38
2018-09-15T02:24:02.061Z,974.36
2018-09-15T02:25:11.959Z,974.34
2018-09-15T02:26:22.080Z,974.36
2018-09-15T02:27:31.933Z,974.36
2018-09-15T02:28:41.791Z,974.38
2018-09-15T02:29:51.753Z,974.35
2018-09-15T02:31:01.570Z,974.36
2018-09-15T02:32:11.428Z,974.4
2018-09-15T02:33:21.280Z,974.41
2018-09-15T02:34:31.408Z,974.43
2018-09-15T02:35:41.544Z,974.39
2018-09-15T02:36:51.716Z,974.4
2018-09-15T02:38:01.851Z,974.38
2018-09-15T02:39:11.705Z,974.43
2018-09-15T02:40:21.298Z,974.44
2018-09-15T02:41:31.427Z,974.42
2018-09-15T02:42:41.611Z,974.46
2018-09-15T02:43:51.739Z,974.47
2018-09-15T02:45:01.599Z,974.38
2018-09-15T02:46:11.460Z,974.4
2018-09-15T02:47:21.603Z,974.35
2018-09-15T02:48:31.780Z,974.33
2018-09-15T02:49:41.907Z,974.35
2018-09-15T02:50:52.039Z,974.39
2018-09-15T02:52:01.893Z,974.4
2018-09-15T02:53:12.025Z,974.42
2018-09-15T02:54:22.161Z,974.43
2018-09-15T02:55:31.781Z,974.51
2018-09-15T02:56:41.907Z,974.44
2018-09-15T02:57:51.773Z,974.48
2018-09-15T02:59:01.633Z,974.47
2018-09-15T03:00:11.807Z,974.56
2018-09-15T03:01:21.390Z,974.53
2018-09-15T03:02:30.972Z,974.53
2018-09-15T03:03:41.104Z,974.5
2018-09-15T03:04:51.242Z,974.57
2018-09-15T03:06:01.370Z,974.62
2018-09-15T03:07:11.228Z,974.63
2018-09-15T03:08:21.105Z,974.68
2018-09-15T03:09:30.681Z,974.68
2018-09-15T03:10:40.906Z,974.65
2018-09-15T03:11:51.204Z,974.71
2018-09-15T03:13:01.332Z,974.7
2018-09-15T03:14:11.191Z,974.69
2018-09-15T03:15:21.062Z,974.67
2018-09-15T03:16:31.189Z,974.66
2018-09-15T03:17:41.374Z,974.67
2018-09-15T03:18:51.237Z,974.67
2018-09-15T03:20:01.094Z,974.63
2018-09-15T03:21:11.225Z,974.67
2018-09-15T03:22:21.365Z,974.66
2018-09-15T03:23:30.956Z,974.69
2018-09-15T03:24:41.085Z,974.71
2018-09-15T03:25:50.662Z,974.68
2018-09-15T03:27:00.791Z,974.71
2018-09-15T03:28:10.642Z,974.73
2018-09-15T03:29:20.821Z,974.72
2018-09-15T03:30:30.701Z,974.7
2018-09-15T03:31:40.842Z,974.66
2018-09-15T03:32:50.419Z,974.74
2018-09-15T03:34:00.568Z,974.67
2018-09-15T03:35:10.741Z,974.69
2018-09-15T03:36:20.876Z,974.68
2018-09-15T03:37:30.733Z,974.68
2018-09-15T03:38:40.857Z,974.67
2018-09-15T03:39:50.710Z,974.69
2018-09-15T03:41:00.565Z,974.72
2018-09-15T03:42:10.693Z,974.76
2018-09-15T03:43:20.826Z,974.75
2018-09-15T03:44:30.957Z,974.79
2018-09-15T03:45:41.083Z,974.82
2018-09-15T03:46:50.988Z,974.76
2018-09-15T03:48:01.113Z,974.8
2018-09-15T03:49:11.247Z,974.8
2018-09-15T03:50:20.552Z,974.73
2018-09-15T03:51:30.677Z,974.7
2018-09-15T03:52:40.806Z,974.73
2018-09-15T03:53:50.934Z,974.78
2018-09-15T03:55:01.067Z,974.81
2018-09-15T03:56:11.198Z,974.8
2018-09-15T03:57:21.057Z,974.85
2018-09-15T03:58:31.244Z,974.93
2018-09-15T03:59:41.377Z,974.9
2018-09-15T04:00:51.627Z,974.94
2018-09-15T04:02:01.507Z,974.99
2018-09-15T04:03:11.404Z,974.97
2018-09-15T04:04:21.587Z,974.99
2018-09-15T04:05:31.451Z,975.02
2018-09-15T04:06:41.587Z,975.01
2018-09-15T04:07:51.725Z,975.03
2018-09-15T04:09:01.850Z,975.03
2018-09-15T04:10:11.707Z,975.05
2018-09-15T04:11:21.835Z,975.05
2018-09-15T04:12:31.968Z,975.08
2018-09-15T04:13:41.820Z,975.07
2018-09-15T04:14:51.943Z,975.14
2018-09-15T04:16:01.847Z,975.11
2018-09-15T04:17:11.697Z,975.17
2018-09-15T04:18:21.550Z,975.16
2018-09-15T04:19:31.128Z,975.2
2018-09-15T04:20:40.707Z,975.23
2018-09-15T04:21:50.030Z,975.29
2018-09-15T04:23:00.164Z,975.29
2018-09-15T04:24:10.300Z,975.33
2018-09-15T04:25:20.423Z,975.33
2018-09-15T04:26:30.588Z,975.32
2018-09-15T04:27:40.551Z,975.35
2018-09-15T04:28:50.133Z,975.32
2018-09-15T04:30:00.265Z,975.36
2018-09-15T04:31:09.845Z,975.37
2018-09-15T04:32:19.970Z,975.37
2018-09-15T04:33:30.147Z,975.35
2018-09-15T04:34:40.303Z,975.39
2018-09-15T04:35:50.428Z,975.4
2018-09-15T04:37:00.284Z,975.33
2018-09-15T04:38:10.408Z,975.36
2018-09-15T04:39:20.309Z,975.4
2018-09-15T04:40:30.463Z,975.38
2018-09-15T04:41:40.628Z,975.42
2018-09-15T04:42:50.941Z,975.41
2018-09-15T04:44:00.828Z,975.39
2018-09-15T04:45:11.002Z,975.39
2018-09-15T04:46:20.581Z,975.47
2018-09-15T04:47:30.435Z,975.45
2018-09-15T04:48:40.294Z,975.4
2018-09-15T04:49:50.430Z,975.39
2018-09-15T04:51:00.602Z,975.41
2018-09-15T04:52:10.464Z,975.39
2018-09-15T04:53:20.599Z,975.45
2018-09-15T04:54:30.726Z,975.45
2018-09-15T04:55:40.581Z,975.46
2018-09-15T04:56:50.487Z,975.45
2018-09-15T04:58:00.064Z,975.41
2018-09-15T04:59:09.917Z,975.46
2018-09-15T05:00:20.050Z,975.47
2018-09-15T05:01:29.908Z,975.5
2018-09-15T05:02:39.815Z,975.5
2018-09-15T05:03:49.662Z,975.48
2018-09-15T05:04:59.793Z,975.51
2018-09-15T05:06:09.923Z,975.51
2018-09-15T05:07:20.048Z,975.53
2018-09-15T05:08:30.227Z,975.58
2018-09-15T05:09:39.805Z,975.56
2018-09-15T05:10:49.936Z,975.55
2018-09-15T05:12:00.070Z,975.59
2018-09-15T05:13:10.195Z,975.57
2018-09-15T05:14:20.096Z,975.58
2018-09-15T05:15:30.229Z,975.6
2018-09-15T05:16:40.101Z,975.57
2018-09-15T05:17:50.293Z,975.57
2018-09-15T05:19:00.143Z,975.58
2018-09-15T05:20:09.498Z,975.64
2018-09-15T05:21:19.621Z,975.64
2018-09-15T05:22:29.201Z,975.63
2018-09-15T05:23:39.323Z,975.65
2018-09-15T05:24:49.459Z,975.65
2018-09-15T05:25:59.631Z,975.64
2018-09-15T05:27:09.477Z,975.64
2018-09-15T05:28:19.053Z,975.62
2018-09-15T05:29:28.903Z,975.7
2018-09-15T05:30:39.032Z,975.71
2018-09-15T05:31:48.930Z,975.71
2018-09-15T05:32:58.786Z,975.74
2018-09-15T05:34:08.912Z,975.71
2018-09-15T05:35:19.040Z,975.72
2018-09-15T05:36:28.896Z,975.72
2018-09-15T05:37:39.076Z,975.74
2018-09-15T05:38:48.928Z,975.79
2018-09-15T05:39:58.844Z,975.8
2018-09-15T05:41:09.077Z,975.73
2018-09-15T05:42:18.384Z,975.73
2018-09-15T05:43:28.287Z,975.78
2018-09-15T05:44:38.413Z,975.8
2018-09-15T05:45:48.538Z,975.85
2018-09-15T05:46:58.388Z,975.86
2018-09-15T05:48:08.243Z,975.8
2018-09-15T05:49:18.418Z,975.85
2018-09-15T05:50:28.292Z,975.87
2018-09-15T05:51:38.148Z,975.94
2018-09-15T05:52:47.998Z,976.02
2018-09-15T05:53:58.121Z,976
2018-09-15T05:55:08.024Z,975.98
2018-09-15T05:56:17.900Z,976.01
2018-09-15T05:57:27.756Z,976
2018-09-15T05:58:37.602Z,976.02
2018-09-15T05:59:47.726Z,975.98
2018-09-15T06:00:57.903Z,976.03
2018-09-15T06:02:07.853Z,976.02
2018-09-15T06:03:17.997Z,976.01
2018-09-15T06:04:28.121Z,976.03
2018-09-15T06:05:37.992Z,976.05
2018-09-15T06:06:48.203Z,976.08
2018-09-15T06:07:58.020Z,976.16
2018-09-15T06:09:07.866Z,976.08
2018-09-15T06:10:17.723Z,976.09
2018-09-15T06:11:27.574Z,976.12
2018-09-15T06:12:37.526Z,976.16
2018-09-15T06:13:47.719Z,976.13
2018-09-15T06:14:57.850Z,976.14
2018-09-15T06:16:07.707Z,976.18
2018-09-15T06:17:17.557Z,976.18
2018-09-15T06:18:27.463Z,976.19
2018-09-15T06:19:37.043Z,976.21
2018-09-15T06:20:46.909Z,976.18
2018-09-15T06:21:56.764Z,976.17
2018-09-15T06:23:06.625Z,976.17
2018-09-15T06:24:16.260Z,976.23
2018-09-15T06:25:26.390Z,976.31
2018-09-15T06:26:36.237Z,976.26
2018-09-15T06:27:46.090Z,976.26
2018-09-15T06:28:55.940Z,976.2
2018-09-15T06:30:06.133Z,976.29
2018-09-15T06:31:15.986Z,976.31
2018-09-15T06:32:26.109Z,976.32
2018-09-15T06:33:35.973Z,976.35
2018-09-15T06:34:46.100Z,976.34
2018-09-15T06:35:56.011Z,976.35
2018-09-15T06:37:06.141Z,976.35
2018-09-15T06:38:16.266Z,976.4
2018-09-15T06:39:26.182Z,976.41
2018-09-15T06:40:36.417Z,976.32
2018-09-15T06:41:46.268Z,976.43
2018-09-15T06:42:56.394Z,976.45
2018-09-15T06:44:06.245Z,976.42
2018-09-15T06:45:16.375Z,976.44
2018-09-15T06:46:26.781Z,976.45
2018-09-15T06:47:36.969Z,976.46
2018-09-15T06:48:47.094Z,976.49
2018-09-15T06:49:56.940Z,976.42
2018-09-15T06:51:06.799Z,976.4
2018-09-15T06:52:17.000Z,976.42
2018-09-15T06:53:26.899Z,976.47
2018-09-15T06:54:37.047Z,976.46
2018-09-15T06:55:47.185Z,976.51
2018-09-15T06:56:57.068Z,976.58
2018-09-15T06:58:06.667Z,976.58
2018-09-15T06:59:18.511Z,976.6
2018-09-15T07:00:28.373Z,976.64
2018-09-15T07:01:38.497Z,976.66
2018-09-15T07:02:48.635Z,976.67
2018-09-15T07:03:58.757Z,976.72
2018-09-15T07:05:08.881Z,976.79
2018-09-15T07:06:19.010Z,976.81
2018-09-15T07:07:28.316Z,976.81
2018-09-15T07:08:38.174Z,976.86
2018-09-15T07:09:47.758Z,976.9
2018-09-15T07:10:57.943Z,976.87
2018-09-15T07:12:08.070Z,976.99
2018-09-15T07:13:17.932Z,976.95
2018-09-15T07:14:27.508Z,977.04
2018-09-15T07:15:37.641Z,977.05
2018-09-15T07:16:47.771Z,977.07
2018-09-15T07:17:57.892Z,977.07
2018-09-15T07:19:08.023Z,977.04
2018-09-15T07:20:18.153Z,977.06
2018-09-15T07:21:27.461Z,977.11
2018-09-15T07:22:37.364Z,977.07
2018-09-15T07:23:47.216Z,977.07
2018-09-15T07:24:57.344Z,977.11
2018-09-15T07:26:06.925Z,977.14
2018-09-15T07:27:16.778Z,977.18
2018-09-15T07:28:26.963Z,977.19
2018-09-15T07:29:36.823Z,977.17
2018-09-15T07:30:46.680Z,977.21
2018-09-15T07:31:56.592Z,977.17
2018-09-15T07:33:06.620Z,977.2
2018-09-15T07:34:16.248Z,977.25
2018-09-15T07:35:25.827Z,977.31
2018-09-15T07:36:35.971Z,977.28
2018-09-15T07:37:46.171Z,977.27
2018-09-15T07:38:56.591Z,977.25
2018-09-15T07:40:05.947Z,977.31
2018-09-15T07:41:16.079Z,977.36
2018-09-15T07:42:25.947Z,977.36
2018-09-15T07:43:35.804Z,977.36
2018-09-15T07:44:45.144Z,977.34
2018-09-15T07:45:55.117Z,977.37
2018-09-15T07:47:04.984Z,977.34
2018-09-15T07:48:15.113Z,977.39
2018-09-15T07:49:25.244Z,977.43
2018-09-15T07:50:35.099Z,977.45
2018-09-15T07:51:45.490Z,977.4
2018-09-15T07:52:55.402Z,977.45
2018-09-15T07:54:05.709Z,977.48
2018-09-15T07:55:15.583Z,977.49
2018-09-15T07:56:25.193Z,977.57
2018-09-15T07:57:35.270Z,977.59
2018-09-15T07:58:45.604Z,977.61
2018-09-15T07:59:55.766Z,977.59
2018-09-15T08:01:05.646Z,977.55
2018-09-15T08:02:15.225Z,977.61
2018-09-15T08:03:25.412Z,977.59
2018-09-15T08:04:35.271Z,977.59
2018-09-15T08:05:45.412Z,977.56
2018-09-15T08:06:55.264Z,977.6
2018-09-15T08:08:05.119Z,977.64
2018-09-15T08:09:14.974Z,977.65
2018-09-15T08:10:24.826Z,977.68
2018-09-15T08:11:34.680Z,977.69
2018-09-15T08:12:44.819Z,977.71
2018-09-15T08:13:54.400Z,977.68
2018-09-15T08:15:04.265Z,977.66
2018-09-15T08:16:14.119Z,977.66
2018-09-15T08:17:23.976Z,977.66
2018-09-15T08:18:34.110Z,977.7
2018-09-15T08:19:44.254Z,977.69
2018-09-15T08:20:54.434Z,977.72
2018-09-15T08:22:04.360Z,977.75
2018-09-15T08:23:13.667Z,977.73
2018-09-15T08:24:23.256Z,977.76
2018-09-15T08:25:33.118Z,977.78
2018-09-15T08:26:42.976Z,977.86
2018-09-15T08:27:53.107Z,977.79
2018-09-15T08:29:03.248Z,977.84
2018-09-15T08:30:13.384Z,977.87
2018-09-15T08:31:23.238Z,977.9
2018-09-15T08:32:33.362Z,977.94
2018-09-15T08:33:43.492Z,977.89
2018-09-15T08:34:53.081Z,977.95
2018-09-15T08:36:02.936Z,977.99
2018-09-15T08:37:12.791Z,977.99
2018-09-15T08:38:22.980Z,978.01
2018-09-15T08:39:32.854Z,977.97
2018-09-15T08:40:42.436Z,977.97
2018-09-15T08:41:51.741Z,978
2018-09-15T08:43:01.879Z,978
2018-09-15T08:44:11.188Z,978.05
2018-09-15T08:45:21.342Z,978.03
2018-09-15T08:46:31.469Z,978.02
2018-09-15T08:47:41.604Z,978.07
2018-09-15T08:48:51.462Z,978.07
2018-09-15T08:50:01.597Z,978.1
2018-09-15T08:51:11.738Z,978.08
2018-09-15T08:52:21.610Z,978.11
2018-09-15T08:53:31.737Z,978.19
2018-09-15T08:54:41.049Z,978.12
2018-09-15T08:55:50.912Z,978.14
2018-09-15T08:57:01.119Z,978.19
2018-09-15T08:58:10.979Z,978.2
2018-09-15T08:59:20.836Z,978.23
2018-09-15T09:00:30.983Z,978.23
2018-09-15T09:01:40.849Z,978.3
2018-09-15T09:02:50.987Z,978.26
2018-09-15T09:04:01.117Z,978.26
2018-09-15T09:05:11.256Z,978.33
2018-09-15T09:06:21.393Z,978.3
2018-09-15T09:07:31.297Z,978.35
2018-09-15T09:08:41.470Z,978.36
2018-09-15T09:09:51.604Z,978.37
2018-09-15T09:11:01.477Z,978.38
2018-09-15T09:12:11.061Z,978.42
2018-09-15T09:13:20.640Z,978.38
2018-09-15T09:14:30.776Z,978.44
2018-09-15T09:15:40.916Z,978.46
2018-09-15T09:16:51.045Z,978.55
2018-09-15T09:18:00.626Z,978.52
2018-09-15T09:19:10.206Z,978.51
2018-09-15T09:20:20.066Z,978.58
2018-09-15T09:21:29.373Z,978.54
2018-09-15T09:22:39.238Z,978.49
2018-09-15T09:23:49.089Z,978.52
2018-09-15T09:24:58.680Z,978.52
2018-09-15T09:26:08.910Z,978.54
2018-09-15T09:27:19.156Z,978.51
2018-09-15T09:28:29.014Z,978.52
2018-09-15T09:29:38.875Z,978.53
2018-09-15T09:30:49.067Z,978.56
2018-09-15T09:31:59.196Z,978.55
2018-09-15T09:33:08.797Z,978.62
2018-09-15T09:34:19.286Z,978.6
2018-09-15T09:35:29.421Z,978.54
2018-09-15T09:36:39.277Z,978.59
2018-09-15T09:37:48.869Z,978.65
2018-09-15T09:38:58.997Z,978.59
2018-09-15T09:40:09.134Z,978.55
2018-09-15T09:41:19.279Z,978.53
2018-09-15T09:42:29.631Z,978.59
2018-09-15T09:43:39.503Z,978.58
2018-09-15T09:44:49.357Z,978.53
2018-09-15T09:45:59.488Z,978.51
2018-09-15T09:47:09.620Z,978.53
2018-09-15T09:48:19.917Z,978.69
2018-09-15T09:49:30.266Z,978.58
2018-09-15T09:50:40.394Z,978.6
2018-09-15T09:51:50.250Z,978.6
2018-09-15T09:53:00.380Z,978.55
2018-09-15T09:54:10.519Z,978.62
2018-09-15T09:55:20.649Z,978.65
2018-09-15T09:56:30.515Z,978.64
2018-09-15T09:57:40.650Z,978.67
2018-09-15T09:58:50.789Z,978.6
2018-09-15T10:00:00.925Z,978.64
2018-09-15T10:01:10.799Z,978.66
2018-09-15T10:02:21.478Z,978.67
2018-09-15T10:03:31.624Z,978.7
2018-09-15T10:04:41.483Z,978.76
2018-09-15T10:05:51.342Z,978.79
2018-09-15T10:07:01.537Z,978.72
2018-09-15T10:08:12.108Z,978.78
2018-09-15T10:09:22.275Z,978.76
2018-09-15T10:10:31.884Z,978.82
2018-09-15T10:11:41.742Z,978.82
2018-09-15T10:12:51.617Z,978.79
2018-09-15T10:14:01.474Z,978.86
2018-09-15T10:15:11.059Z,978.85
2018-09-15T10:16:21.204Z,978.84
2018-09-15T10:17:31.438Z,978.87
2018-09-15T10:18:41.302Z,978.9
2018-09-15T10:19:51.433Z,978.86
2018-09-15T10:21:01.288Z,978.89
2018-09-15T10:22:11.151Z,978.89
2018-09-15T10:23:21.286Z,978.96
2018-09-15T10:24:31.142Z,978.91
2018-09-15T10:25:41.281Z,978.86
2018-09-15T10:26:51.420Z,978.89
2018-09-15T10:28:01.556Z,978.92
2018-09-15T10:29:11.135Z,978.97
2018-09-15T10:30:20.992Z,978.91
2018-09-15T10:31:31.120Z,978.94
2018-09-15T10:32:41.252Z,978.92
2018-09-15T10:33:51.132Z,979
2018-09-15T10:35:00.988Z,979.02
2018-09-15T10:36:10.845Z,979
2018-09-15T10:37:20.701Z,979.01
2018-09-15T10:38:30.895Z,979.02
2018-09-15T10:39:41.383Z,979.06
2018-09-15T10:40:51.242Z,979.02
2018-09-15T10:42:01.385Z,979.09
2018-09-15T10:43:10.965Z,979.11
2018-09-15T10:44:21.098Z,979.1
2018-09-15T10:45:31.237Z,979.1
2018-09-15T10:46:41.189Z,979.02
2018-09-15T10:47:51.302Z,979.05
2018-09-15T10:49:01.161Z,979.11
2018-09-15T10:50:10.750Z,979.08
2018-09-15T10:51:20.603Z,979.14
2018-09-15T10:52:30.296Z,979.16
2018-09-15T10:53:40.479Z,979.18
2018-09-15T10:54:50.616Z,979.21
2018-09-15T10:56:00.751Z,979.16
2018-09-15T10:57:10.334Z,979.15
2018-09-15T10:58:19.914Z,979.23
2018-09-15T10:59:30.096Z,979.21
2018-09-15T11:00:40.280Z,979.19
2018-09-15T11:01:50.825Z,979.2
2018-09-15T11:03:00.688Z,979.21
2018-09-15T11:04:10.000Z,979.24
2018-09-15T11:05:20.130Z,979.24
2018-09-15T11:06:29.712Z,979.28
2018-09-15T11:07:39.853Z,979.3
2018-09-15T11:08:49.990Z,979.25
2018-09-15T11:10:00.119Z,979.3
2018-09-15T11:11:10.248Z,979.26
2018-09-15T11:12:20.104Z,979.35
2018-09-15T11:13:29.736Z,979.24
2018-09-15T11:14:39.535Z,979.27
2018-09-15T11:15:49.393Z,979.27
2018-09-15T11:16:59.249Z,979.25
2018-09-15T11:18:09.108Z,979.23
2018-09-15T11:19:18.694Z,979.2
2018-09-15T11:20:28.278Z,979.19
2018-09-15T11:21:37.588Z,979.22
2018-09-15T11:22:47.726Z,979.21
2018-09-15T11:23:58.505Z,979.24
2018-09-15T11:25:08.636Z,979.24
2018-09-15T11:26:18.766Z,979.2
2018-09-15T11:27:28.953Z,979.18
2018-09-15T11:28:39.139Z,979.19
2018-09-15T11:29:49.362Z,979.19
2018-09-15T11:30:59.500Z,979.18
2018-09-15T11:32:09.353Z,979.15
2018-09-15T11:33:19.260Z,979.2
2018-09-15T11:34:29.385Z,979.18
2018-09-15T11:35:39.239Z,979.1
2018-09-15T11:36:49.099Z,979.12
2018-09-15T11:37:58.959Z,979.16
2018-09-15T11:39:09.087Z,979.19
2018-09-15T11:40:18.944Z,979.19
2018-09-15T11:41:29.070Z,979.2
2018-09-15T11:42:38.978Z,979.19
2018-09-15T11:43:48.832Z,979.21
2018-09-15T11:44:58.971Z,979.25
2018-09-15T11:46:08.556Z,979.29
2018-09-15T11:47:18.413Z,979.28
2018-09-15T11:48:27.997Z,979.27
2018-09-15T11:49:38.142Z,979.28
2018-09-15T11:50:47.997Z,979.23
2018-09-15T11:51:57.856Z,979.29
2018-09-15T11:53:07.715Z,979.32
2018-09-15T11:54:17.295Z,979.23
2018-09-15T11:55:26.883Z,979.33
2018-09-15T11:56:37.014Z,979.35
2018-09-15T11:57:46.866Z,979.33
2018-09-15T11:58:56.766Z,979.28
2018-09-15T12:00:06.047Z,979.32
2018-09-15T12:01:16.125Z,979.36
2018-09-15T12:02:26.252Z,979.34
2018-09-15T12:03:36.381Z,979.32
2018-09-15T12:04:46.570Z,979.33
2018-09-15T12:05:56.709Z,979.35
2018-09-15T12:07:06.862Z,979.37
2018-09-15T12:08:17.043Z,979.4
2018-09-15T12:09:26.901Z,979.37
2018-09-15T12:10:36.763Z,979.33
2018-09-15T12:11:46.902Z,979.39
2018-09-15T12:12:56.761Z,979.42
2018-09-15T12:14:06.681Z,979.37
2018-09-15T12:15:16.163Z,979.38
2018-09-15T12:16:26.031Z,979.43
2018-09-15T12:17:36.183Z,979.44
2018-09-15T12:18:46.323Z,979.39
2018-09-15T12:19:56.181Z,979.51
2018-09-15T12:21:05.764Z,979.49
2018-09-15T12:22:15.974Z,979.5
2018-09-15T12:23:25.840Z,979.52
2018-09-15T12:24:35.700Z,979.46
2018-09-15T12:25:45.328Z,979.45
2018-09-15T12:26:54.947Z,979.49
2018-09-15T12:28:04.812Z,979.42
2018-09-15T12:29:14.942Z,979.51
2018-09-15T12:30:24.524Z,979.49
2018-09-15T12:31:34.384Z,979.47
2018-09-15T12:32:44.522Z,979.48
2018-09-15T12:33:54.101Z,979.55
2018-09-15T12:35:03.955Z,979.54
2018-09-15T12:36:14.094Z,979.58
2018-09-15T12:37:24.003Z,979.54
2018-09-15T12:38:34.135Z,979.49
2018-09-15T12:39:44.272Z,979.54
2018-09-15T12:40:54.124Z,979.53
2018-09-15T12:42:03.765Z,979.5
2018-09-15T12:43:13.351Z,979.47
2018-09-15T12:44:22.730Z,979.47
2018-09-15T12:45:32.597Z,979.51
2018-09-15T12:46:42.729Z,979.59
2018-09-15T12:47:52.037Z,979.53
2018-09-15T12:49:01.617Z,979.55
2018-09-15T12:50:11.473Z,979.58
2018-09-15T12:51:20.787Z,979.57
2018-09-15T12:52:30.922Z,979.53
2018-09-15T12:53:41.056Z,979.58
2018-09-15T12:54:51.014Z,979.57
2018-09-15T12:56:00.868Z,979.52
2018-09-15T12:57:10.180Z,979.46
2018-09-15T12:58:20.312Z,979.54
2018-09-15T12:59:29.624Z,979.51
2018-09-15T13:00:39.481Z,979.5
2018-09-15T13:01:49.344Z,979.51
2018-09-15T13:02:59.484Z,979.51
2018-09-15T13:04:09.347Z,979.5
2018-09-15T13:05:19.474Z,979.51
2018-09-15T13:06:29.655Z,979.5
2018-09-15T13:07:40.093Z,979.53
2018-09-15T13:08:49.671Z,979.51
2018-09-15T13:09:59.801Z,979.48
2018-09-15T13:11:09.658Z,979.57
2018-09-15T13:12:19.566Z,979.61
2018-09-15T13:13:28.825Z,979.55
2018-09-15T13:14:38.687Z,979.63
2018-09-15T13:15:48.275Z,979.56
2018-09-15T13:16:58.405Z,979.54
2018-09-15T13:18:08.549Z,979.57
2018-09-15T13:19:18.404Z,979.63
2018-09-15T13:20:28.258Z,979.59
2018-09-15T13:21:38.131Z,979.58
2018-09-15T13:22:47.988Z,979.59
2018-09-15T13:23:57.839Z,979.67
2018-09-15T13:25:07.692Z,979.6
2018-09-15T13:26:17.553Z,979.62
2018-09-15T13:27:27.132Z,979.61
2018-09-15T13:28:36.471Z,979.68
2018-09-15T13:29:46.498Z,979.63
2018-09-15T13:30:57.456Z,979.64
2018-09-15T13:32:07.323Z,979.67
2018-09-15T13:33:17.457Z,979.67
2018-09-15T13:34:27.591Z,979.68
2018-09-15T13:35:37.728Z,979.74
2018-09-15T13:36:47.860Z,979.75
2018-09-15T13:37:58.024Z,979.73
2018-09-15T13:39:08.150Z,979.65
2018-09-15T13:40:18.010Z,979.71
2018-09-15T13:41:28.155Z,979.68
2018-09-15T13:42:38.289Z,979.67
2018-09-15T13:43:48.149Z,979.65
2018-09-15T13:44:58.011Z,979.67
2018-09-15T13:46:08.150Z,979.66
2018-09-15T13:47:18.286Z,979.71
2018-09-15T13:48:28.419Z,979.72
2018-09-15T13:49:38.280Z,979.72
2018-09-15T13:50:48.416Z,979.74
2018-09-15T13:51:58.545Z,979.71
2018-09-15T13:53:08.678Z,979.73
2018-09-15T13:54:18.406Z,979.73
2018-09-15T13:55:27.716Z,979.73
2018-09-15T13:56:37.575Z,979.77
2018-09-15T13:57:46.896Z,979.77
2018-09-15T13:58:56.822Z,979.77
2018-09-15T14:00:06.941Z,979.76
2018-09-15T14:01:17.073Z,979.74
2018-09-15T14:02:27.200Z,979.76
2018-09-15T14:03:37.055Z,979.73
2018-09-15T14:04:46.722Z,979.75
2018-09-15T14:05:57.081Z,979.74
2018-09-15T14:07:06.660Z,979.77
2018-09-15T14:08:16.802Z,979.8
2018-09-15T14:09:26.111Z,979.79
2018-09-15T14:10:46.874Z,979.77
2018-09-15T14:11:57.117Z,979.82
2018-09-15T14:13:06.979Z,979.85
2018-09-15T14:14:17.107Z,979.83
2018-09-15T14:15:27.239Z,979.86
2018-09-15T14:16:37.114Z,979.83
2018-09-15T14:17:47.431Z,979.82
2018-09-15T14:18:57.562Z,979.9
2018-09-15T14:20:07.148Z,979.84
2018-09-15T14:21:17.278Z,979.88
2018-09-15T14:22:27.410Z,979.88
2018-09-15T14:23:37.278Z,979.87
2018-09-15T14:24:47.412Z,979.89
2018-09-15T14:25:57.548Z,979.89
2018-09-15T14:27:07.136Z,979.89
2018-09-15T14:28:17.337Z,979.9
2018-09-15T14:29:27.690Z,979.94
2018-09-15T14:30:37.821Z,979.93
2018-09-15T14:31:47.679Z,979.94
2018-09-15T14:32:57.807Z,979.97
2018-09-15T14:34:07.940Z,979.93
2018-09-15T14:35:17.523Z,979.94
2018-09-15T14:36:27.385Z,979.95